createdAt,value
2017-07-24T00:02:03.228Z,100656.45
2017-07-24T00:04:29.634Z,100650.74
2017-07-24T00:06:55.998Z,100647.68
2017-07-24T00:09:22.384Z,100646.83
2017-07-24T00:11:49.545Z,100648.59
2017-07-24T00:14:16.682Z,100640.70
2017-07-24T00:16:43.047Z,100634.17
2017-07-24T00:19:09.419Z,100632.03
2017-07-24T00:21:36.559Z,100632.44
2017-07-24T00:24:02.919Z,100628.05
2017-07-24T00:26:30.067Z,100628.46
2017-07-24T00:28:56.447Z,100618.44
2017-07-24T00:31:23.599Z,100618.84
2017-07-24T00:33:49.961Z,100615.88
2017-07-24T00:36:17.091Z,100607.52
2017-07-24T00:38:43.467Z,100606.69
2017-07-24T00:41:09.845Z,100608.49
2017-07-24T00:43:36.219Z,100600.07
2017-07-24T00:46:02.584Z,100595.75
2017-07-24T00:48:28.963Z,100598.81
2017-07-24T00:50:55.350Z,100592.69
2017-07-24T00:53:21.719Z,100593.19
2017-07-24T00:55:48.130Z,100596.75
2017-07-24T00:58:15.272Z,100585.75
2017-07-24T01:00:41.626Z,100592.38
2017-07-24T01:03:08.003Z,100589.31
2017-07-24T01:05:35.146Z,100587.55
2017-07-24T01:08:01.630Z,100585.40
2017-07-24T01:10:28.019Z,100585.80
2017-07-24T01:12:54.386Z,100587.64
2017-07-24T01:15:20.770Z,100585.90
2017-07-24T01:17:47.903Z,100586.81
2017-07-24T01:20:14.279Z,100582.02
2017-07-24T01:22:41.413Z,100579.78
2017-07-24T01:25:07.778Z,100578.05
2017-07-24T01:27:34.138Z,100584.67
2017-07-24T01:30:00.498Z,100581.20
2017-07-24T01:32:27.650Z,100577.29
2017-07-24T01:34:54.023Z,100579.44
2017-07-24T01:37:20.433Z,100575.14
2017-07-24T01:39:46.811Z,100573.00
2017-07-24T01:42:13.181Z,100576.88
2017-07-24T01:44:39.562Z,100568.20
2017-07-24T01:47:05.920Z,100561.98
2017-07-24T01:49:32.296Z,100557.61
2017-07-24T01:51:58.695Z,100556.28
2017-07-24T01:54:25.071Z,100550.54
2017-07-24T01:56:51.434Z,100551.45
2017-07-24T01:59:17.806Z,100551.87
2017-07-24T02:01:44.196Z,100549.31
2017-07-24T02:04:10.590Z,100545.75
2017-07-24T02:06:36.956Z,100548.80
2017-07-24T02:09:04.091Z,100545.42
2017-07-24T02:11:30.464Z,100543.19
2017-07-24T02:13:56.849Z,100535.75
2017-07-24T02:16:23.226Z,100537.48
2017-07-24T02:18:49.602Z,100529.13
2017-07-24T02:21:15.966Z,100522.09
2017-07-24T02:23:42.363Z,100520.36
2017-07-24T02:26:08.739Z,100520.77
2017-07-24T02:28:35.241Z,100520.83
2017-07-24T02:31:01.632Z,100520.42
2017-07-24T02:33:28.023Z,100522.16
2017-07-24T02:35:55.162Z,100520.01
2017-07-24T02:38:21.531Z,100528.78
2017-07-24T02:40:47.926Z,100528.87
2017-07-24T02:43:14.304Z,100521.84
2017-07-24T02:45:40.692Z,100524.08
2017-07-24T02:48:07.066Z,100519.19
2017-07-24T02:50:33.435Z,100519.69
2017-07-24T02:52:59.822Z,100521.94
2017-07-24T02:55:26.188Z,100517.11
2017-07-24T02:57:52.540Z,100516.70
2017-07-24T03:00:19.670Z,100508.28
2017-07-24T03:02:46.031Z,100508.84
2017-07-24T03:05:12.394Z,100504.77
2017-07-24T03:07:38.783Z,100505.69
2017-07-24T03:10:05.151Z,100503.13
2017-07-24T03:12:31.504Z,100502.63
2017-07-24T03:14:57.867Z,100504.46
2017-07-24T03:17:24.231Z,100504.46
2017-07-24T03:19:50.592Z,100501.40
2017-07-24T03:22:16.966Z,100498.75
2017-07-24T03:24:43.322Z,100496.61
2017-07-24T03:27:09.704Z,100503.23
2017-07-24T03:29:36.063Z,100501.46
2017-07-24T03:32:02.448Z,100500.14
2017-07-24T03:34:29.572Z,100497.99
2017-07-24T03:36:55.959Z,100494.43
2017-07-24T03:39:22.317Z,100492.79
2017-07-24T03:41:49.441Z,100492.79
2017-07-24T03:44:15.807Z,100493.70
2017-07-24T03:46:42.183Z,100489.73
2017-07-24T03:49:09.480Z,100487.59
2017-07-24T03:51:35.835Z,100488.91
2017-07-24T03:54:02.191Z,100484.94
2017-07-24T03:56:28.588Z,100485.00
2017-07-24T03:58:54.950Z,100488.50
2017-07-24T04:01:22.094Z,100485.00
2017-07-24T04:03:48.450Z,100488.16
2017-07-24T04:06:14.819Z,100480.30
2017-07-24T04:08:41.939Z,100476.23
2017-07-24T04:11:08.292Z,100471.03
2017-07-24T04:13:34.660Z,100471.94
2017-07-24T04:16:01.024Z,100469.70
2017-07-24T04:18:27.386Z,100469.77
2017-07-24T04:20:54.502Z,100462.27
2017-07-24T04:23:20.878Z,100467.05
2017-07-24T04:25:47.241Z,100465.38
2017-07-24T04:28:13.611Z,100461.41
2017-07-24T04:30:40.763Z,100458.77
2017-07-24T04:33:07.899Z,100456.20
2017-07-24T04:35:34.263Z,100455.30
2017-07-24T04:38:00.629Z,100451.83
2017-07-24T04:40:27.163Z,100452.23
2017-07-24T04:42:53.522Z,100450.59
2017-07-24T04:45:19.895Z,100446.63
2017-07-24T04:47:47.010Z,100443.13
2017-07-24T04:50:13.396Z,100443.13
2017-07-24T04:52:40.524Z,100444.03
2017-07-24T04:55:06.907Z,100446.28
2017-07-24T04:57:33.263Z,100446.69
2017-07-24T05:00:00.387Z,100444.54
2017-07-24T05:02:26.756Z,100437.20
2017-07-24T05:04:53.200Z,100441.98
2017-07-24T05:07:19.583Z,100436.69
2017-07-24T05:09:45.951Z,100435.78
2017-07-24T05:12:12.319Z,100430.07
2017-07-24T05:14:38.683Z,100433.38
2017-07-24T05:17:05.055Z,100430.23
2017-07-24T05:19:31.677Z,100433.38
2017-07-24T05:21:58.055Z,100429.09
2017-07-24T05:24:24.438Z,100424.62
2017-07-24T05:26:50.802Z,100428.17
2017-07-24T05:29:17.167Z,100421.97
2017-07-24T05:31:43.558Z,100414.53
2017-07-24T05:34:09.931Z,100422.03
2017-07-24T05:36:37.122Z,100424.77
2017-07-24T05:39:04.240Z,100424.77
2017-07-24T05:41:30.606Z,100428.24
2017-07-24T05:43:56.980Z,100424.87
2017-07-24T05:46:23.357Z,100422.63
2017-07-24T05:48:49.736Z,100419.57
2017-07-24T05:51:16.094Z,100419.16
2017-07-24T05:53:42.482Z,100421.81
2017-07-24T05:56:08.876Z,100417.02
2017-07-24T05:58:35.261Z,100413.05
2017-07-24T06:01:01.625Z,100412.61
2017-07-24T06:03:28.010Z,100412.19
2017-07-24T06:05:54.367Z,100410.45
2017-07-24T06:08:20.750Z,100416.67
2017-07-24T06:10:47.156Z,100413.20
2017-07-24T06:13:13.515Z,100407.91
2017-07-24T06:15:39.909Z,100408.81
2017-07-24T06:18:06.292Z,100406.17
2017-07-24T06:20:32.663Z,100408.00
2017-07-24T06:22:59.020Z,100401.45
2017-07-24T06:25:25.378Z,100400.63
2017-07-24T06:27:51.942Z,100399.39
2017-07-24T06:30:18.318Z,100398.89
2017-07-24T06:32:44.724Z,100400.72
2017-07-24T06:35:11.111Z,100395.02
2017-07-24T06:37:37.484Z,100405.51
2017-07-24T06:40:03.858Z,100402.45
2017-07-24T06:42:30.232Z,100396.40
2017-07-24T06:44:56.775Z,100393.28
2017-07-24T06:47:23.163Z,100391.52
2017-07-24T06:49:49.536Z,100396.81
2017-07-24T06:52:15.930Z,100397.72
2017-07-24T06:54:42.312Z,100395.08
2017-07-24T06:57:09.542Z,100389.47
2017-07-24T06:59:35.935Z,100395.48
2017-07-24T07:02:02.311Z,100393.44
2017-07-24T07:04:28.675Z,100394.85
2017-07-24T07:06:55.158Z,100395.67
2017-07-24T07:09:21.557Z,100393.53
2017-07-24T07:11:47.929Z,100392.62
2017-07-24T07:14:14.289Z,100388.70
2017-07-24T07:16:40.678Z,100387.38
2017-07-24T07:19:07.044Z,100387.80
2017-07-24T07:21:34.160Z,100386.06
2017-07-24T07:24:00.510Z,100384.27
2017-07-24T07:26:26.883Z,100380.30
2017-07-24T07:28:53.247Z,100384.98
2017-07-24T07:31:20.375Z,100381.84
2017-07-24T07:33:46.746Z,100384.17
2017-07-24T07:36:13.113Z,100377.05
2017-07-24T07:38:39.500Z,100382.75
2017-07-24T07:41:05.862Z,100373.07
2017-07-24T07:43:32.230Z,100375.72
2017-07-24T07:45:58.598Z,100378.37
2017-07-24T07:48:25.462Z,100381.93
2017-07-24T07:50:51.819Z,100381.93
2017-07-24T07:53:18.977Z,100375.31
2017-07-24T07:55:45.336Z,100374.91
2017-07-24T07:58:12.479Z,100375.81
2017-07-24T08:00:38.929Z,100382.34
2017-07-24T08:03:05.320Z,100380.45
2017-07-24T08:05:31.723Z,100381.17
2017-07-24T08:07:58.091Z,100381.58
2017-07-24T08:10:24.472Z,100379.69
2017-07-24T08:12:51.615Z,100373.39
2017-07-24T08:15:17.994Z,100371.56
2017-07-24T08:17:44.360Z,100377.61
2017-07-24T08:20:10.727Z,100382.97
2017-07-24T08:22:37.118Z,100387.70
2017-07-24T08:25:03.492Z,100392.58
2017-07-24T08:27:29.968Z,100386.78
2017-07-24T08:29:56.323Z,100392.91
2017-07-24T08:32:22.733Z,100400.03
2017-07-24T08:34:49.087Z,100394.38
2017-07-24T08:37:15.455Z,100390.41
2017-07-24T08:39:41.830Z,100386.02
2017-07-24T08:42:08.186Z,100387.86
2017-07-24T08:44:34.767Z,100393.97
2017-07-24T08:47:01.132Z,100390.09
2017-07-24T08:49:28.267Z,100392.65
2017-07-24T08:51:54.640Z,100387.25
2017-07-24T08:54:21.883Z,100388.17
2017-07-24T08:56:48.262Z,100385.11
2017-07-24T08:59:14.647Z,100387.25
2017-07-24T09:01:41.024Z,100385.36
2017-07-24T09:04:07.392Z,100388.42
2017-07-24T09:06:33.771Z,100389.24
2017-07-24T09:09:00.914Z,100386.09
2017-07-24T09:11:28.064Z,100379.41
2017-07-24T09:13:54.443Z,100375.84
2017-07-24T09:16:22.711Z,100387.56
2017-07-24T09:18:49.143Z,100383.19
2017-07-24T09:21:15.545Z,100379.56
2017-07-24T09:23:42.674Z,100380.79
2017-07-24T09:26:09.023Z,100386.34
2017-07-24T09:28:35.402Z,100388.89
2017-07-24T09:31:01.758Z,100385.27
2017-07-24T09:33:28.885Z,100388.32
2017-07-24T09:35:55.342Z,100380.75
2017-07-24T09:38:21.709Z,100381.59
2017-07-24T09:40:48.096Z,100385.64
2017-07-24T09:43:14.463Z,100386.05
2017-07-24T09:45:40.917Z,100377.62
2017-07-24T09:48:07.270Z,100381.00
2017-07-24T09:50:33.818Z,100377.03
2017-07-24T09:53:00.183Z,100374.62
2017-07-24T09:55:26.563Z,100372.64
2017-07-24T09:57:52.951Z,100367.90
2017-07-24T10:00:19.361Z,100371.05
2017-07-24T10:02:45.725Z,100369.73
2017-07-24T10:05:12.860Z,100370.14
2017-07-24T10:07:39.230Z,100376.26
2017-07-24T10:10:05.620Z,100376.26
2017-07-24T10:12:31.990Z,100372.28
2017-07-24T10:14:58.373Z,100376.16
2017-07-24T10:17:24.793Z,100374.02
2017-07-24T10:19:51.163Z,100380.33
2017-07-24T10:22:17.527Z,100380.55
2017-07-24T10:24:43.884Z,100377.42
2017-07-24T10:27:10.267Z,100379.73
2017-07-24T10:29:36.657Z,100377.27
2017-07-24T10:32:03.124Z,100380.39
2017-07-24T10:34:29.496Z,100384.14
2017-07-24T10:36:56.650Z,100375.28
2017-07-24T10:39:23.017Z,100376.10
2017-07-24T10:41:50.157Z,100371.72
2017-07-24T10:44:16.543Z,100373.45
2017-07-24T10:46:42.921Z,100372.54
2017-07-24T10:49:09.286Z,100374.47
2017-07-24T10:51:35.677Z,100372.23
2017-07-24T10:54:02.039Z,100375.79
2017-07-24T10:56:28.426Z,100374.47
2017-07-24T10:58:54.908Z,100376.20
2017-07-24T11:01:22.239Z,100377.94
2017-07-24T11:03:48.655Z,100375.79
2017-07-24T11:06:15.019Z,100376.36
2017-07-24T11:08:41.472Z,100375.03
2017-07-24T11:11:08.076Z,100378.59
2017-07-24T11:13:34.451Z,100373.20
2017-07-24T11:16:00.851Z,100368.16
2017-07-24T11:18:27.208Z,100371.53
2017-07-24T11:20:53.570Z,100368.00
2017-07-24T11:23:19.932Z,100373.61
2017-07-24T11:25:46.351Z,100366.07
2017-07-24T11:28:12.927Z,100368.22
2017-07-24T11:30:39.327Z,100360.83
2017-07-24T11:33:05.721Z,100357.30
2017-07-24T11:35:32.097Z,100359.19
2017-07-24T11:37:58.458Z,100352.47
2017-07-24T11:40:25.590Z,100343.20
2017-07-24T11:42:52.002Z,100344.52
2017-07-24T11:45:18.375Z,100342.28
2017-07-24T11:47:44.823Z,100339.63
2017-07-24T11:50:11.224Z,100344.00
2017-07-24T11:52:38.391Z,100351.94
2017-07-24T11:55:04.748Z,100353.67
2017-07-24T11:57:31.875Z,100353.67
2017-07-24T11:59:58.231Z,100349.69
2017-07-24T12:02:24.608Z,100352.81
2017-07-24T12:04:50.970Z,100359.13
2017-07-24T12:07:18.122Z,100357.08
2017-07-24T12:09:45.273Z,100352.77
2017-07-24T12:12:11.640Z,100358.47
2017-07-24T12:14:38.011Z,100362.64
2017-07-24T12:17:04.379Z,100364.95
2017-07-24T12:19:30.755Z,100365.04
2017-07-24T12:21:57.147Z,100365.04
2017-07-24T12:24:23.519Z,100370.44
2017-07-24T12:26:49.899Z,100363.98
2017-07-24T12:29:16.255Z,100379.47
2017-07-24T12:31:42.649Z,100374.73
2017-07-24T12:34:09.770Z,100376.06
2017-07-24T12:36:36.139Z,100376.16
2017-07-24T12:39:02.526Z,100372.28
2017-07-24T12:41:29.659Z,100360.01
2017-07-24T12:43:55.987Z,100364.08
2017-07-24T12:46:22.317Z,100357.86
2017-07-24T12:48:48.688Z,100355.72
2017-07-24T12:51:15.055Z,100354.56
2017-07-24T12:53:41.478Z,100355.88
2017-07-24T12:56:07.843Z,100357.30
2017-07-24T12:58:34.208Z,100352.92
2017-07-24T13:01:00.597Z,100357.81
2017-07-24T13:03:26.969Z,100349.01
2017-07-24T13:05:53.340Z,100357.88
2017-07-24T13:08:19.715Z,100359.70
2017-07-24T13:10:46.095Z,100352.27
2017-07-24T13:13:12.466Z,100358.98
2017-07-24T13:15:38.839Z,100356.73
2017-07-24T13:18:05.212Z,100367.41
2017-07-24T13:20:31.626Z,100372.64
2017-07-24T13:22:58.039Z,100376.27
2017-07-24T13:25:24.370Z,100371.47
2017-07-24T13:27:51.588Z,100379.11
2017-07-24T13:30:17.959Z,100393.27
2017-07-24T13:32:44.330Z,100398.62
2017-07-24T13:35:10.687Z,100410.14
2017-07-24T13:37:37.077Z,100408.09
2017-07-24T13:40:03.450Z,100410.33
2017-07-24T13:42:29.811Z,100411.72
2017-07-24T13:44:56.179Z,100410.08
2017-07-24T13:47:23.288Z,100403.05
2017-07-24T13:49:49.647Z,100415.88
2017-07-24T13:52:16.031Z,100419.41
2017-07-24T13:54:42.407Z,100418.19
2017-07-24T13:57:09.527Z,100415.53
2017-07-24T13:59:35.891Z,100412.57
2017-07-24T14:02:02.260Z,100418.28
2017-07-24T14:04:29.387Z,100420.58
2017-07-24T14:06:55.856Z,100423.23
2017-07-24T14:09:22.225Z,100421.91
2017-07-24T14:11:48.615Z,100425.88
2017-07-24T14:14:14.986Z,100431.68
2017-07-24T14:16:41.351Z,100435.75
2017-07-24T14:19:07.719Z,100447.26
2017-07-24T14:21:34.076Z,100451.33
2017-07-24T14:24:01.214Z,100450.89
2017-07-24T14:26:27.594Z,100450.48
2017-07-24T14:28:54.745Z,100450.48
2017-07-24T14:31:21.121Z,100452.81
2017-07-24T14:33:47.524Z,100450.06
2017-07-24T14:36:13.884Z,100448.84
2017-07-24T14:38:40.288Z,100449.34
2017-07-24T14:41:06.651Z,100443.63
2017-07-24T14:43:33.030Z,100439.66
2017-07-24T14:45:59.417Z,100438.81
2017-07-24T14:48:26.559Z,100436.25
2017-07-24T14:50:52.953Z,100437.67
2017-07-24T14:53:19.333Z,100428.41
2017-07-24T14:55:45.720Z,100434.20
2017-07-24T14:58:12.169Z,100428.41
2017-07-24T15:00:38.539Z,100427.14
2017-07-24T15:03:05.693Z,100432.44
2017-07-24T15:05:32.060Z,100430.70
2017-07-24T15:07:59.218Z,100421.94
2017-07-24T15:10:26.337Z,100419.80
2017-07-24T15:12:52.723Z,100416.80
2017-07-24T15:15:19.091Z,100415.47
2017-07-24T15:17:46.251Z,100415.47
2017-07-24T15:20:13.374Z,100412.01
2017-07-24T15:22:39.889Z,100414.25
2017-07-24T15:25:06.255Z,100406.80
2017-07-24T15:27:32.656Z,100406.39
2017-07-24T15:29:59.019Z,100405.58
2017-07-24T15:32:26.159Z,100410.63
2017-07-24T15:34:52.554Z,100405.12
2017-07-24T15:37:18.967Z,100407.02
2017-07-24T15:39:45.383Z,100404.72
2017-07-24T15:42:11.734Z,100412.10
2017-07-24T15:44:38.110Z,100415.31
2017-07-24T15:47:04.486Z,100414.91
2017-07-24T15:49:31.603Z,100418.47
2017-07-24T15:51:57.997Z,100413.58
2017-07-24T15:54:25.126Z,100417.55
2017-07-24T15:56:51.499Z,100411.34
2017-07-24T15:59:17.863Z,100413.17
2017-07-24T16:01:44.979Z,100416.64
2017-07-24T16:04:11.370Z,100413.58
2017-07-24T16:06:37.734Z,100424.49
2017-07-24T16:09:04.867Z,100418.38
2017-07-24T16:11:31.231Z,100421.44
2017-07-24T16:13:57.598Z,100425.41
2017-07-24T16:16:24.759Z,100422.70
2017-07-24T16:18:51.122Z,100426.58
2017-07-24T16:21:18.279Z,100434.42
2017-07-24T16:23:44.646Z,100432.69
2017-07-24T16:26:11.017Z,100424.34
2017-07-24T16:28:37.369Z,100429.22
2017-07-24T16:31:03.739Z,100427.39
2017-07-24T16:33:30.152Z,100430.04
2017-07-24T16:35:56.519Z,100425.88
2017-07-24T16:38:22.902Z,100428.62
2017-07-24T16:40:49.285Z,100430.67
2017-07-24T16:43:16.406Z,100434.64
2017-07-24T16:45:42.790Z,100429.19
2017-07-24T16:48:09.160Z,100432.25
2017-07-24T16:50:36.299Z,100433.16
2017-07-24T16:53:02.663Z,100430.77
2017-07-24T16:55:29.052Z,100435.05
2017-07-24T16:57:55.435Z,100437.30
2017-07-24T17:00:21.824Z,100438.62
2017-07-24T17:02:48.254Z,100437.20
2017-07-24T17:05:14.639Z,100433.63
2017-07-24T17:07:41.012Z,100430.92
2017-07-24T17:10:07.595Z,100438.77
2017-07-24T17:12:33.955Z,100432.15
2017-07-24T17:15:00.371Z,100433.47
2017-07-24T17:17:26.743Z,100438.68
2017-07-24T17:19:53.184Z,100444.23
2017-07-24T17:22:19.553Z,100445.05
2017-07-24T17:24:45.981Z,100444.23
2017-07-24T17:27:12.347Z,100442.40
2017-07-24T17:29:38.726Z,100440.25
2017-07-24T17:32:05.858Z,100441.98
2017-07-24T17:34:32.236Z,100444.23
2017-07-24T17:36:59.406Z,100439.34
2017-07-24T17:39:26.547Z,100440.16
2017-07-24T17:41:52.913Z,100442.34
2017-07-24T17:44:19.292Z,100445.71
2017-07-24T17:46:45.662Z,100445.71
2017-07-24T17:49:12.135Z,100449.78
2017-07-24T17:51:38.491Z,100450.69
2017-07-24T17:54:04.863Z,100449.78
2017-07-24T17:56:31.428Z,100449.78
2017-07-24T17:58:58.572Z,100446.72
2017-07-24T18:01:24.953Z,100452.43
2017-07-24T18:03:52.090Z,100448.77
2017-07-24T18:06:18.499Z,100441.58
2017-07-24T18:08:45.008Z,100437.77
2017-07-24T18:11:12.144Z,100437.95
2017-07-24T18:13:38.471Z,100447.63
2017-07-24T18:16:04.847Z,100447.70
2017-07-24T18:18:31.256Z,100450.85
2017-07-24T18:20:57.627Z,100453.00
2017-07-24T18:23:24.210Z,100453.91
2017-07-24T18:25:50.586Z,100455.73
2017-07-24T18:28:16.967Z,100456.56
2017-07-24T18:30:43.469Z,100458.64
2017-07-24T18:33:09.841Z,100461.80
2017-07-24T18:35:36.229Z,100469.75
2017-07-24T18:38:02.634Z,100470.63
2017-07-24T18:40:29.772Z,100472.96
2017-07-24T18:42:56.222Z,100473.88
2017-07-24T18:45:22.603Z,100476.18
2017-07-24T18:47:48.990Z,100479.74
2017-07-24T18:50:15.463Z,100477.59
2017-07-24T18:52:41.844Z,100488.61
2017-07-24T18:55:08.454Z,100484.22
2017-07-24T18:57:34.850Z,100487.88
2017-07-24T19:00:01.252Z,100487.06
2017-07-24T19:02:27.825Z,100486.21
2017-07-24T19:04:54.276Z,100491.09
2017-07-24T19:07:21.777Z,100491.19
2017-07-24T19:09:48.199Z,100495.17
2017-07-24T19:12:14.588Z,100494.76
2017-07-24T19:14:40.974Z,100495.27
2017-07-24T19:17:07.359Z,100498.32
2017-07-24T19:19:33.775Z,100496.23
2017-07-24T19:22:00.134Z,100494.50
2017-07-24T19:24:26.530Z,100498.48
2017-07-24T19:26:52.946Z,100500.30
2017-07-24T19:29:19.383Z,100495.52
2017-07-24T19:31:45.805Z,100499.08
2017-07-24T19:34:12.935Z,100506.17
2017-07-24T19:36:39.359Z,100507.50
2017-07-24T19:39:05.724Z,100505.76
2017-07-24T19:41:32.121Z,100508.09
2017-07-24T19:43:58.483Z,100512.57
2017-07-24T19:46:24.885Z,100512.13
2017-07-24T19:48:51.279Z,100513.89
2017-07-24T19:51:17.682Z,100511.72
2017-07-24T19:53:44.045Z,100513.89
2017-07-24T19:56:10.426Z,100520.52
2017-07-24T19:58:36.929Z,100516.61
2017-07-24T20:01:04.228Z,100514.05
2017-07-24T20:03:31.395Z,100515.37
2017-07-24T20:05:57.866Z,100517.20
2017-07-24T20:08:24.259Z,100508.84
2017-07-24T20:10:50.656Z,100516.80
2017-07-24T20:13:17.788Z,100513.73
2017-07-24T20:15:44.154Z,100508.00
2017-07-24T20:18:10.552Z,100512.47
2017-07-24T20:20:38.264Z,100513.39
2017-07-24T20:23:04.642Z,100512.56
2017-07-24T20:25:31.032Z,100513.98
2017-07-24T20:27:57.402Z,100517.05
2017-07-24T20:30:23.784Z,100520.20
2017-07-24T20:32:50.171Z,100515.78
2017-07-24T20:35:16.591Z,100512.72
2017-07-24T20:37:43.756Z,100516.28
2017-07-24T20:40:10.137Z,100510.98
2017-07-24T20:42:36.782Z,100508.84
2017-07-24T20:45:03.338Z,100511.49
2017-07-24T20:47:29.739Z,100512.41
2017-07-24T20:49:56.103Z,100509.76
2017-07-24T20:52:22.500Z,100510.16
2017-07-24T20:54:48.865Z,100507.52
2017-07-24T20:57:15.332Z,100503.95
2017-07-24T20:59:41.729Z,100505.37
2017-07-24T21:02:08.871Z,100501.40
2017-07-24T21:04:35.265Z,100499.67
2017-07-24T21:07:01.639Z,100501.46
2017-07-24T21:09:28.002Z,100500.23
2017-07-24T21:11:54.383Z,100503.38
2017-07-24T21:14:20.771Z,100502.47
2017-07-24T21:16:47.164Z,100503.89
2017-07-24T21:19:13.582Z,100511.83
2017-07-24T21:21:39.954Z,100507.86
2017-07-24T21:24:06.311Z,100506.53
2017-07-24T21:26:32.695Z,100503.48
2017-07-24T21:28:59.095Z,100510.57
2017-07-24T21:31:25.467Z,100507.04
2017-07-24T21:33:51.861Z,100510.57
2017-07-24T21:36:18.994Z,100512.81
2017-07-24T21:38:45.359Z,100514.64
2017-07-24T21:41:12.503Z,100515.96
2017-07-24T21:43:38.874Z,100520.75
2017-07-24T21:46:06.042Z,100515.14
2017-07-24T21:48:33.214Z,100522.58
2017-07-24T21:51:00.373Z,100524.83
2017-07-24T21:53:27.509Z,100516.05
2017-07-24T21:55:53.889Z,100521.35
2017-07-24T21:58:20.280Z,100520.53
2017-07-24T22:00:46.671Z,100520.03
2017-07-24T22:03:13.287Z,100528.48
2017-07-24T22:05:39.692Z,100528.95
2017-07-24T22:08:06.845Z,100528.03
2017-07-24T22:10:33.221Z,100525.39
2017-07-24T22:13:00.358Z,100522.83
2017-07-24T22:15:26.726Z,100525.89
2017-07-24T22:17:53.147Z,100532.09
2017-07-24T22:20:19.524Z,100534.50
2017-07-24T22:22:45.887Z,100530.03
2017-07-24T22:25:12.270Z,100531.95
2017-07-24T22:27:38.880Z,100531.13
2017-07-24T22:30:06.098Z,100530.78
2017-07-24T22:32:32.624Z,100530.37
2017-07-24T22:34:59.100Z,100531.28
2017-07-24T22:37:25.666Z,100528.63
2017-07-24T22:39:52.133Z,100529.14
2017-07-24T22:42:18.641Z,100524.25
2017-07-24T22:44:45.207Z,100529.64
2017-07-24T22:47:11.682Z,100530.52
2017-07-24T22:49:38.248Z,100532.77
2017-07-24T22:52:04.710Z,100527.47
2017-07-24T22:54:31.082Z,100534.08
2017-07-24T22:56:57.478Z,100528.78
2017-07-24T22:59:24.994Z,100530.52
2017-07-24T23:01:51.379Z,100524.91
2017-07-24T23:04:17.754Z,100528.47
2017-07-24T23:06:44.110Z,100526.73
2017-07-24T23:09:10.496Z,100528.56
2017-07-24T23:11:36.888Z,100530.77
2017-07-24T23:14:03.279Z,100533.01
2017-07-24T23:16:29.640Z,100534.42
2017-07-24T23:18:56.015Z,100529.54
2017-07-24T23:21:22.370Z,100526.16
2017-07-24T23:23:48.744Z,100528.30
2017-07-24T23:26:15.144Z,100526.57
2017-07-24T23:28:41.508Z,100525.75
2017-07-24T23:31:08.678Z,100527.48
2017-07-24T23:33:35.851Z,100516.55
2017-07-24T23:36:02.997Z,100515.22
2017-07-24T23:38:29.367Z,100513.48
2017-07-24T23:40:56.505Z,100515.31
2017-07-24T23:43:22.899Z,100527.55
2017-07-24T23:45:49.247Z,100522.02
2017-07-24T23:48:15.628Z,100526.41
2017-07-24T23:50:41.997Z,100527.73
2017-07-24T23:53:08.374Z,100533.53
2017-07-24T23:55:34.780Z,100530.89
2017-07-24T23:58:01.161Z,100531.77
